createdAt,value
2023-12-14T05:32:56.895Z,31.75
2023-12-14T05:35:23.843Z,30.27
2023-12-14T05:45:58.680Z,32.90
2023-12-14T05:51:27.684Z,32.83
2023-12-14T05:54:05.111Z,32.15
2023-12-14T05:56:32.182Z,30.98
2023-12-14T05:58:59.097Z,35.63
2023-12-14T06:01:26.871Z,37.88
2023-12-14T06:03:54.025Z,36.22
2023-12-14T06:06:20.967Z,34.10
2023-12-14T06:08:48.410Z,30.23
2023-12-14T06:11:15.446Z,28.65
2023-12-14T06:13:42.311Z,26.73
2023-12-14T06:16:16.892Z,25.42
2023-12-14T06:18:53.539Z,25.60
2023-12-14T06:21:20.784Z,28.65
2023-12-14T06:23:50.522Z,29.35
2023-12-14T06:28:59.242Z,26.40
2023-12-14T06:31:29.257Z,28.83
2023-12-14T06:34:00.089Z,27.55
2023-12-14T06:36:33.633Z,28.63
2023-12-14T06:39:01.093Z,27.70
2023-12-14T06:41:31.392Z,28.95
2023-12-14T06:44:01.233Z,28.45
2023-12-14T06:46:30.913Z,26.77
2023-12-14T06:48:58.793Z,27.98
2023-12-14T06:51:38.521Z,27.52
2023-12-14T06:54:05.334Z,26.27
2023-12-14T06:56:34.967Z,27.08
2023-12-14T06:59:02.156Z,27.77
2023-12-14T07:01:29.915Z,28.63
2023-12-14T07:04:00.106Z,28.45
2023-12-14T07:06:26.941Z,27.83
2023-12-14T07:08:53.595Z,32.75
2023-12-14T07:12:08.180Z,30.48
2023-12-14T07:14:38.207Z,28.92
2023-12-14T07:17:05.022Z,26.05
2023-12-14T07:19:32.126Z,26.38
2023-12-14T07:21:59.231Z,24.05
2023-12-14T07:24:26.104Z,26.80
2023-12-14T07:26:53.099Z,25.92
2023-12-14T07:29:20.174Z,24.77
2023-12-14T07:31:47.271Z,22.50
2023-12-14T07:34:17.339Z,23.38
2023-12-14T07:36:46.681Z,24.35
2023-12-14T07:39:13.733Z,24.27
2023-12-14T07:41:40.872Z,23.80
2023-12-14T07:44:08.302Z,23.52
2023-12-14T07:46:36.817Z,22.08
2023-12-14T07:49:04.038Z,21.90
2023-12-14T07:51:31.108Z,22.83
2023-12-14T07:53:57.865Z,22.77
2023-12-14T07:56:26.978Z,22.80
2023-12-14T07:58:53.904Z,21.15
2023-12-14T08:01:21.969Z,23.20
2023-12-14T08:03:48.884Z,21.42
2023-12-14T08:06:16.837Z,22.40
2023-12-14T08:08:43.954Z,21.70
2023-12-14T08:11:10.951Z,20.80
2023-12-14T08:13:38.966Z,20.00
2023-12-14T08:16:06.076Z,18.17
2023-12-14T08:18:32.920Z,20.10
2023-12-14T08:20:59.873Z,19.92
2023-12-14T08:23:29.103Z,19.70
2023-12-14T08:25:59.111Z,21.20
2023-12-14T08:28:26.668Z,20.13
2023-12-14T08:30:53.679Z,20.42
2023-12-14T08:33:20.504Z,19.08
2023-12-14T08:35:47.347Z,18.88
2023-12-14T08:38:14.097Z,19.45
2023-12-14T08:40:40.926Z,19.83
2023-12-14T08:43:07.813Z,20.02
2023-12-14T08:45:34.558Z,21.00
2023-12-14T08:48:01.501Z,20.05
2023-12-14T08:50:28.408Z,19.95
2023-12-14T08:52:56.026Z,20.77
2023-12-14T08:55:23.347Z,20.77
2023-12-14T08:57:50.367Z,19.70
2023-12-14T09:00:18.869Z,19.48
2023-12-14T09:02:47.323Z,20.58
2023-12-14T09:05:16.751Z,20.25
2023-12-14T09:07:47.555Z,18.83
2023-12-14T09:10:14.307Z,19.52
2023-12-14T09:12:41.042Z,20.30
2023-12-14T09:15:08.145Z,20.48
2023-12-14T09:17:37.408Z,21.02
2023-12-14T09:20:06.657Z,18.48
2023-12-14T09:22:34.536Z,21.40
2023-12-14T09:25:01.250Z,21.75
2023-12-14T09:27:28.281Z,21.15
2023-12-14T09:29:55.329Z,21.42
2023-12-14T09:32:22.078Z,21.55
2023-12-14T09:34:48.884Z,19.73
2023-12-14T09:37:16.241Z,20.13
2023-12-14T09:39:43.062Z,21.02
2023-12-14T09:42:10.088Z,20.52
2023-12-14T09:44:38.496Z,20.73
2023-12-14T09:47:05.815Z,20.55
2023-12-14T09:49:33.696Z,20.65
2023-12-14T09:52:01.071Z,22.60
2023-12-14T09:54:28.024Z,21.15
2023-12-14T09:56:55.030Z,22.95
2023-12-14T09:59:23.489Z,21.67
2023-12-14T10:01:50.534Z,22.27
2023-12-14T10:04:18.448Z,22.45
2023-12-14T10:06:46.239Z,21.80
2023-12-14T10:09:17.978Z,21.77
2023-12-14T10:11:45.118Z,22.10
2023-12-14T10:14:26.171Z,22.23
2023-12-14T10:17:01.108Z,19.70
2023-12-14T10:19:30.492Z,21.40
2023-12-14T10:21:57.514Z,20.27
2023-12-14T10:24:24.306Z,21.80
2023-12-14T10:26:52.713Z,19.75
2023-12-14T10:29:19.722Z,19.02
2023-12-14T10:31:47.087Z,21.20
2023-12-14T10:34:14.678Z,20.00
2023-12-14T10:36:41.962Z,19.58
2023-12-14T10:39:09.938Z,20.65
2023-12-14T10:41:37.085Z,18.55
2023-12-14T10:44:19.933Z,19.45
2023-12-14T10:46:53.723Z,18.85
2023-12-14T10:49:20.779Z,18.25
2023-12-14T10:51:49.317Z,19.25
2023-12-14T10:54:17.206Z,18.15
2023-12-14T10:56:44.154Z,18.75
2023-12-14T10:59:10.920Z,19.50
2023-12-14T11:01:41.085Z,19.35
2023-12-14T11:04:08.084Z,20.15
2023-12-14T11:06:39.742Z,19.25
2023-12-14T11:09:08.105Z,21.08
2023-12-14T11:11:42.939Z,20.77
2023-12-14T11:14:12.562Z,22.23
2023-12-14T11:16:45.956Z,22.25
2023-12-14T11:19:25.906Z,22.77
2023-12-14T11:21:58.542Z,24.38
2023-12-14T11:24:25.384Z,23.67
2023-12-14T11:26:52.165Z,22.58
2023-12-14T11:29:20.675Z,22.13
2023-12-14T11:31:47.612Z,22.65
2023-12-14T11:34:16.869Z,19.90
2023-12-14T11:36:43.982Z,20.42
2023-12-14T11:39:11.025Z,21.38
2023-12-14T11:41:39.820Z,22.45
2023-12-14T11:44:06.743Z,20.42
2023-12-14T11:46:33.847Z,21.75
2023-12-14T11:49:00.940Z,20.33
2023-12-14T11:51:28.033Z,19.17
2023-12-14T11:53:54.885Z,20.38
2023-12-14T11:56:23.998Z,19.70
2023-12-14T11:58:51.036Z,19.20
2023-12-14T12:01:19.025Z,22.13
2023-12-14T12:03:46.847Z,25.30
2023-12-14T12:06:24.474Z,23.88
2023-12-14T12:08:51.903Z,22.35
2023-12-14T12:11:19.526Z,22.88
2023-12-14T12:13:51.356Z,22.48
2023-12-14T12:16:18.507Z,23.73
2023-12-14T12:18:45.335Z,20.88
2023-12-14T12:21:15.375Z,23.58
2023-12-14T12:23:43.343Z,22.02
2023-12-14T12:26:10.723Z,22.27
2023-12-14T12:28:38.219Z,21.13
2023-12-14T12:31:05.677Z,23.25
2023-12-14T12:33:39.208Z,22.70
2023-12-14T12:36:06.916Z,21.67
2023-12-14T12:38:33.808Z,20.85
2023-12-14T12:41:02.168Z,21.45
2023-12-14T12:43:29.262Z,20.90
2023-12-14T12:45:55.937Z,19.73
2023-12-14T12:48:25.726Z,20.05
2023-12-14T12:50:54.204Z,21.00
2023-12-14T12:53:21.960Z,22.17
2023-12-14T12:55:48.824Z,21.92
2023-12-14T12:58:16.354Z,19.17
2023-12-14T13:00:43.231Z,19.77
2023-12-14T13:03:11.379Z,21.48
2023-12-14T13:05:38.446Z,18.75
2023-12-14T13:08:05.562Z,19.83
2023-12-14T13:10:33.170Z,19.83
2023-12-14T13:13:00.776Z,19.70
2023-12-14T13:15:30.879Z,20.58
2023-12-14T13:17:58.113Z,18.45
2023-12-14T13:20:25.007Z,18.00
2023-12-14T13:22:51.964Z,19.58
2023-12-14T13:25:18.891Z,18.85
2023-12-14T13:27:45.728Z,19.15
2023-12-14T13:30:19.492Z,22.95
2023-12-14T13:32:47.483Z,22.08
2023-12-14T13:35:15.234Z,21.73
2023-12-14T13:37:43.339Z,22.05
2023-12-14T13:40:14.516Z,20.60
2023-12-14T13:42:50.992Z,20.73
2023-12-14T13:45:28.174Z,21.98
2023-12-14T13:47:55.472Z,21.38
2023-12-14T13:50:23.602Z,20.90
2023-12-14T13:52:50.495Z,21.38
2023-12-14T13:55:17.930Z,18.23
2023-12-14T13:57:44.876Z,22.52
2023-12-14T14:00:13.219Z,20.70
2023-12-14T14:02:40.701Z,21.00
2023-12-14T14:05:07.833Z,20.90
2023-12-14T14:07:35.630Z,21.35
2023-12-14T14:10:03.453Z,20.02
2023-12-14T14:12:30.954Z,22.25
2023-12-14T14:14:58.093Z,20.77
2023-12-14T14:17:25.414Z,21.27
2023-12-14T14:19:52.943Z,20.27
2023-12-14T14:22:22.229Z,20.38
2023-12-14T14:24:56.031Z,19.15
2023-12-14T14:27:29.401Z,19.98
2023-12-14T14:29:58.388Z,20.52
2023-12-14T14:32:25.706Z,21.50
2023-12-14T14:34:58.413Z,20.25
2023-12-14T14:37:25.992Z,22.52
2023-12-14T14:39:53.541Z,21.08
2023-12-14T14:42:23.764Z,22.13
2023-12-14T14:44:50.899Z,20.70
2023-12-14T14:47:23.572Z,22.65
2023-12-14T14:49:51.050Z,20.60
2023-12-14T14:52:18.721Z,20.80
2023-12-14T14:54:45.840Z,21.77
2023-12-14T14:57:13.297Z,21.35
2023-12-14T14:59:40.885Z,21.83
2023-12-14T15:02:07.993Z,21.95
2023-12-14T15:04:35.465Z,23.42
2023-12-14T15:07:04.522Z,21.17
2023-12-14T15:09:31.799Z,22.10
2023-12-14T15:11:59.640Z,25.45
2023-12-14T15:14:28.947Z,26.50
2023-12-14T15:16:56.742Z,24.73
2023-12-14T15:19:32.900Z,26.88
2023-12-14T15:21:59.818Z,26.08
2023-12-14T15:24:27.234Z,23.70
2023-12-14T15:26:54.229Z,21.70
2023-12-14T15:29:23.014Z,24.33
2023-12-14T15:31:51.639Z,24.50
2023-12-14T15:34:19.898Z,23.42
2023-12-14T15:36:46.914Z,24.38
2023-12-14T15:39:13.891Z,24.33
2023-12-14T15:41:41.365Z,26.30
2023-12-14T15:44:09.192Z,26.77
2023-12-14T15:46:36.430Z,33.50
2023-12-14T15:49:04.351Z,44.63
2023-12-14T15:51:31.825Z,26.02
2023-12-14T15:54:00.880Z,24.17
2023-12-14T15:56:32.305Z,23.60
2023-12-14T15:59:04.577Z,23.15
2023-12-14T16:01:31.682Z,26.60
2023-12-14T16:03:59.162Z,24.73
2023-12-14T16:06:27.467Z,25.10
2023-12-14T16:08:54.359Z,23.52
2023-12-14T16:11:22.232Z,21.98
2023-12-14T16:13:51.317Z,24.38
2023-12-14T16:16:18.442Z,21.42
2023-12-14T16:18:45.397Z,18.45
2023-12-14T16:21:12.332Z,26.92
2023-12-14T16:23:39.842Z,24.85
2023-12-14T16:26:07.667Z,29.55
2023-12-14T16:28:35.812Z,28.23
2023-12-14T16:31:11.592Z,27.67
2023-12-14T16:33:40.008Z,22.38
2023-12-14T16:36:15.318Z,23.05
2023-12-14T16:38:44.228Z,21.00
2023-12-14T16:41:12.448Z,20.60
2023-12-14T16:43:39.917Z,22.27
2023-12-14T16:46:07.403Z,18.80
2023-12-14T16:48:38.152Z,18.33
2023-12-14T16:51:07.057Z,17.45
2023-12-14T16:53:34.414Z,18.58
2023-12-14T16:56:02.381Z,19.02
2023-12-14T16:58:31.498Z,20.58
2023-12-14T17:01:01.588Z,20.27
2023-12-14T17:03:29.689Z,17.50
2023-12-14T17:05:56.849Z,16.17
2023-12-14T17:08:24.094Z,15.73
2023-12-14T17:10:51.450Z,15.40
2023-12-14T17:13:20.037Z,16.40
2023-12-14T17:15:48.064Z,16.58
2023-12-14T17:18:15.902Z,16.00
2023-12-14T17:20:43.760Z,15.93
2023-12-14T17:23:11.435Z,16.20
2023-12-14T17:25:38.549Z,16.67
2023-12-14T17:28:06.598Z,16.95
2023-12-14T17:30:37.500Z,17.92
2023-12-14T17:33:08.182Z,16.60
2023-12-14T17:35:38.649Z,15.85
2023-12-14T17:38:06.195Z,15.63
2023-12-14T17:40:34.241Z,15.27
2023-12-14T17:43:01.576Z,15.25
2023-12-14T17:45:29.127Z,13.23
2023-12-14T17:50:37.987Z,13.05
2023-12-14T17:53:05.692Z,14.02
2023-12-14T17:55:33.118Z,12.60
2023-12-14T17:58:01.017Z,14.07
2023-12-14T18:00:29.245Z,12.10
2023-12-14T18:02:56.456Z,11.55
2023-12-14T18:05:27.588Z,12.35
2023-12-14T18:07:54.522Z,12.35
2023-12-14T18:10:22.604Z,10.57
2023-12-14T18:12:51.682Z,11.57
2023-12-14T18:15:19.526Z,10.98
2023-12-14T18:17:48.256Z,12.00
2023-12-14T18:20:16.321Z,11.88
2023-12-14T18:22:44.149Z,12.82
2023-12-14T18:25:14.326Z,12.40
2023-12-14T18:27:42.202Z,13.10
2023-12-14T18:30:12.820Z,14.57
2023-12-14T18:32:40.790Z,13.02
2023-12-14T18:35:08.672Z,13.40
2023-12-14T18:37:36.941Z,13.50
2023-12-14T18:40:05.420Z,12.93
2023-12-14T18:42:33.289Z,13.75
2023-12-14T18:45:01.295Z,13.57
2023-12-14T18:47:30.194Z,10.90
2023-12-14T18:50:05.318Z,12.90
2023-12-14T18:52:34.557Z,12.18
2023-12-14T18:55:02.089Z,13.65
2023-12-14T18:57:32.496Z,12.98
2023-12-14T19:00:03.172Z,13.63
2023-12-14T19:02:31.268Z,14.85
2023-12-14T19:05:02.827Z,14.80
2023-12-14T19:07:30.626Z,15.13
2023-12-14T19:10:02.089Z,14.27
2023-12-14T19:12:30.251Z,14.98
2023-12-14T19:15:00.363Z,15.00
2023-12-14T19:17:28.499Z,14.77
2023-12-14T19:19:56.542Z,14.73
2023-12-14T19:22:26.285Z,14.52
2023-12-14T19:24:53.590Z,14.13
2023-12-14T19:27:23.859Z,15.68
2023-12-14T19:29:51.397Z,16.77
2023-12-14T19:32:19.307Z,14.45
2023-12-14T19:34:51.042Z,15.35
2023-12-14T19:37:18.853Z,15.02
2023-12-14T19:39:48.198Z,14.60
2023-12-14T19:42:18.268Z,14.68
2023-12-14T19:44:45.216Z,14.98
2023-12-14T19:47:12.139Z,15.52
2023-12-14T19:49:39.312Z,16.17
2023-12-14T19:52:06.362Z,14.48
2023-12-14T19:54:33.436Z,17.88
2023-12-14T19:57:00.556Z,16.70
2023-12-14T19:59:30.221Z,18.25
2023-12-14T20:01:57.575Z,17.25
2023-12-14T20:04:24.553Z,18.00
2023-12-14T20:06:53.536Z,16.70
2023-12-14T20:09:20.460Z,15.95
2023-12-14T20:11:52.277Z,15.85
2023-12-14T20:14:20.082Z,15.07
2023-12-14T20:16:48.949Z,15.95
2023-12-14T20:19:16.562Z,16.08
2023-12-14T20:21:43.553Z,14.95
2023-12-14T20:24:15.990Z,16.45
2023-12-14T20:26:42.980Z,17.60
2023-12-14T20:29:09.939Z,17.30
2023-12-14T20:31:36.819Z,17.98
2023-12-14T20:34:04.672Z,16.77
2023-12-14T20:36:35.416Z,15.52
2023-12-14T20:39:04.583Z,16.98
2023-12-14T20:41:31.747Z,15.98
2023-12-14T20:43:58.757Z,14.65
2023-12-14T20:46:28.944Z,16.02
2023-12-14T20:48:55.964Z,15.20
2023-12-14T20:51:26.885Z,17.60
2023-12-14T20:53:57.017Z,17.27
2023-12-14T20:56:24.033Z,16.13
2023-12-14T20:58:51.084Z,15.60
2023-12-14T21:01:18.193Z,17.25
2023-12-14T21:03:51.681Z,14.70
2023-12-14T21:06:22.379Z,14.38
2023-12-14T21:08:51.706Z,14.57
2023-12-14T21:11:21.542Z,16.55
2023-12-14T21:13:51.856Z,14.15
2023-12-14T21:16:19.083Z,14.02
2023-12-14T21:18:48.298Z,14.18
2023-12-14T21:21:16.259Z,14.80
2023-12-14T21:23:43.344Z,16.15
2023-12-14T21:26:13.867Z,13.88
2023-12-14T21:28:41.296Z,13.93
2023-12-14T21:31:08.526Z,14.38
2023-12-14T21:33:36.260Z,13.50
2023-12-14T21:36:03.545Z,13.48
2023-12-14T21:38:36.560Z,13.48
2023-12-14T21:41:04.136Z,13.13
2023-12-14T21:43:32.139Z,13.45
2023-12-14T21:46:07.796Z,14.30
2023-12-14T21:48:35.164Z,14.27
2023-12-14T21:51:02.244Z,12.68
2023-12-14T21:53:31.640Z,14.15
2023-12-14T21:55:58.913Z,12.05
2023-12-14T21:58:25.898Z,14.93
2023-12-14T22:00:55.522Z,13.02
2023-12-14T22:03:23.075Z,11.43
2023-12-14T22:05:50.702Z,11.88
2023-12-14T22:08:18.445Z,11.75
2023-12-14T22:10:45.546Z,12.70
2023-12-14T22:13:12.899Z,10.82
2023-12-14T22:15:40.847Z,11.38
2023-12-14T22:18:10.396Z,10.90
2023-12-14T22:20:38.088Z,11.38
2023-12-14T22:23:05.293Z,11.10
2023-12-14T22:25:33.271Z,11.48
2023-12-14T22:28:00.328Z,11.57
2023-12-14T22:30:27.421Z,10.50
2023-12-14T22:32:54.866Z,10.40
2023-12-14T22:35:24.772Z,9.43
2023-12-14T22:37:51.848Z,9.32
2023-12-14T22:40:18.667Z,9.07
2023-12-14T22:42:45.852Z,9.55
2023-12-14T22:45:12.660Z,9.20
2023-12-14T22:47:40.070Z,10.80
2023-12-14T22:50:07.700Z,8.77
2023-12-14T22:52:34.577Z,8.77
2023-12-14T22:55:01.565Z,11.15
2023-12-14T22:57:28.669Z,9.90
2023-12-14T22:59:58.500Z,11.23
2023-12-14T23:02:28.670Z,9.55
2023-12-14T23:05:07.076Z,9.90
2023-12-14T23:07:33.953Z,9.55
2023-12-14T23:10:01.845Z,11.35
2023-12-14T23:12:33.291Z,10.77
2023-12-14T23:15:03.310Z,10.27
2023-12-14T23:17:31.940Z,11.43
2023-12-14T23:19:59.249Z,10.75
2023-12-14T23:22:26.284Z,11.95
2023-12-14T23:24:53.447Z,12.00
2023-12-14T23:27:21.307Z,12.43
2023-12-14T23:29:48.162Z,11.77
2023-12-14T23:32:18.519Z,10.50
2023-12-14T23:35:06.888Z,11.82
2023-12-14T23:37:38.419Z,10.50
2023-12-14T23:40:13.850Z,10.82
2023-12-14T23:42:40.997Z,10.05
